Time;durP1;ratioP1;P1;durP2;ratioP2;P2;SDS_P1;SDS_P2;PMS_P1;PMS_P2;Temp;Humidity;BMP_temperature;BMP_pressure;BME280_temperature;BME280_humidity;BME280_pressure;Samples;Min_cycle;Max_cycle;Signal;HPM_P1;HPM_P2
2023/12/13 00:01:37;;;;;;;10.33;2.90;;;10.90;99.90;;;;;;5027492;28;20265;-83
2023/12/13 00:04:03;;;;;;;7.87;2.30;;;10.70;99.90;;;;;;5027647;28;20178;-82
2023/12/13 00:06:30;;;;;;;9.70;2.30;;;10.60;99.90;;;;;;5028885;28;20170;-81
2023/12/13 00:08:56;;;;;;;8.83;2.37;;;10.60;99.90;;;;;;5027989;28;20205;-82
2023/12/13 00:11:22;;;;;;;8.07;2.37;;;10.70;99.90;;;;;;5027777;28;20839;-82
2023/12/13 00:13:48;;;;;;;10.23;2.70;;;10.80;99.90;;;;;;5027433;28;20182;-81
2023/12/13 00:16:14;;;;;;;8.50;2.60;;;10.80;99.90;;;;;;5027864;28;20593;-82
2023/12/13 00:18:40;;;;;;;7.97;2.17;;;10.80;99.90;;;;;;5027447;28;20194;-81
2023/12/13 00:21:06;;;;;;;10.47;2.87;;;10.90;99.90;;;;;;5028220;28;20172;-83
2023/12/13 00:23:31;;;;;;;12.10;2.43;;;10.80;99.90;;;;;;5027015;28;20189;-82
2023/12/13 00:25:57;;;;;;;7.00;2.20;;;10.90;99.90;;;;;;5031873;28;20221;-81
2023/12/13 00:28:23;;;;;;;8.90;2.70;;;10.90;99.90;;;;;;5033974;28;20661;-82
2023/12/13 00:30:49;;;;;;;11.30;3.17;;;10.80;99.90;;;;;;5034500;28;20587;-81
2023/12/13 00:33:14;;;;;;;9.97;2.93;;;10.90;99.90;;;;;;5034152;28;20177;-82
2023/12/13 00:35:40;;;;;;;7.97;2.00;;;10.90;99.90;;;;;;5033992;28;20555;-82
2023/12/13 00:38:06;;;;;;;13.50;3.33;;;10.90;99.90;;;;;;5033874;28;20189;-81
2023/12/13 00:40:31;;;;;;;8.43;2.50;;;10.80;99.90;;;;;;5034186;28;20201;-81
2023/12/13 00:42:57;;;;;;;10.20;2.63;;;10.70;99.90;;;;;;5035625;28;20203;-82
2023/12/13 00:45:23;;;;;;;8.53;2.50;;;10.70;99.90;;;;;;5034426;28;20186;-82
2023/12/13 00:47:49;;;;;;;12.33;2.93;;;10.80;99.90;;;;;;5035686;28;20257;-82
2023/12/13 00:50:15;;;;;;;12.77;3.33;;;10.80;99.90;;;;;;5033721;28;20218;-82
2023/12/13 00:52:41;;;;;;;11.93;2.57;;;10.80;99.90;;;;;;5034685;28;20197;-81
2023/12/13 00:55:08;;;;;;;10.17;2.57;;;10.90;99.90;;;;;;5033645;28;20180;-81
2023/12/13 00:57:34;;;;;;;14.33;3.60;;;10.80;99.90;;;;;;5035077;28;20702;-83
2023/12/13 01:00:00;;;;;;;10.83;3.03;;;10.80;99.90;;;;;;5033971;28;20179;-81
2023/12/13 01:02:27;;;;;;;11.70;3.20;;;10.80;99.90;;;;;;5034536;28;20546;-82
2023/12/13 01:04:53;;;;;;;9.97;2.87;;;10.80;99.90;;;;;;5032950;28;20233;-83
2023/12/13 01:07:19;;;;;;;10.60;2.90;;;10.80;99.90;;;;;;5035029;28;20206;-83
2023/12/13 01:09:44;;;;;;;10.17;3.00;;;10.80;99.90;;;;;;5033576;28;20579;-83
2023/12/13 01:12:12;;;;;;;10.43;3.47;;;10.80;99.90;;;;;;5033862;28;20179;-82
2023/12/13 01:14:38;;;;;;;10.30;3.00;;;10.80;99.90;;;;;;5033535;28;20193;-82
2023/12/13 01:17:04;;;;;;;10.97;3.20;;;10.80;99.90;;;;;;5033420;28;20183;-82
2023/12/13 01:19:30;;;;;;;13.23;3.10;;;10.80;99.90;;;;;;5033070;28;20183;-82
2023/12/13 01:21:56;;;;;;;14.27;3.77;;;10.70;99.90;;;;;;5033856;28;20186;-82
2023/12/13 01:24:21;;;;;;;13.83;3.20;;;10.70;99.90;;;;;;5033000;28;20247;-82
2023/12/13 01:26:47;;;;;;;13.03;2.57;;;10.60;99.90;;;;;;5031283;28;20724;-82
2023/12/13 01:29:13;;;;;;;13.93;3.07;;;10.60;99.90;;;;;;5033558;28;20715;-82
2023/12/13 01:31:38;;;;;;;12.23;2.73;;;10.60;99.90;;;;;;5033599;28;20618;-82
2023/12/13 01:34:04;;;;;;;13.77;3.40;;;10.70;99.90;;;;;;5033255;28;20662;-83
2023/12/13 01:36:30;;;;;;;10.80;3.27;;;10.70;99.90;;;;;;5032703;28;20619;-81
2023/12/13 01:38:55;;;;;;;11.57;3.00;;;10.60;99.90;;;;;;5031136;28;20183;-81
2023/12/13 01:41:21;;;;;;;10.47;2.67;;;10.60;99.90;;;;;;5031324;28;20181;-82
2023/12/13 01:43:47;;;;;;;11.77;3.27;;;10.60;99.90;;;;;;5030901;28;20179;-81
2023/12/13 01:46:16;;;;;;;10.23;2.57;;;10.70;99.90;;;;;;5030380;28;20205;-83
2023/12/13 01:48:43;;;;;;;15.00;3.10;;;10.60;99.90;;;;;;5031515;28;20217;-82
2023/12/13 01:51:10;;;;;;;13.37;3.43;;;10.60;99.90;;;;;;5029612;28;20181;-83
2023/12/13 01:53:37;;;;;;;14.97;3.13;;;10.60;99.90;;;;;;5030308;28;20232;-81
2023/12/13 01:56:05;;;;;;;11.07;2.90;;;10.70;99.90;;;;;;5030044;28;20247;-82
2023/12/13 01:58:32;;;;;;;12.87;3.30;;;10.70;99.90;;;;;;5029794;28;20269;-82
2023/12/13 02:00:58;;;;;;;11.37;2.73;;;10.70;99.90;;;;;;5031435;28;20183;-81
2023/12/13 02:03:25;;;;;;;15.77;3.40;;;10.70;99.90;;;;;;5029990;28;20180;-82
2023/12/13 02:05:51;;;;;;;10.00;2.90;;;10.70;99.90;;;;;;5032683;28;20614;-81
2023/12/13 02:08:18;;;;;;;16.77;3.77;;;10.80;99.90;;;;;;5032140;28;20685;-82
2023/12/13 02:10:45;;;;;;;9.20;2.93;;;10.80;99.90;;;;;;5033214;28;20201;-82
2023/12/13 02:13:13;;;;;;;12.93;3.20;;;10.70;99.90;;;;;;5033232;28;20182;-83
2023/12/13 02:15:39;;;;;;;17.03;3.53;;;10.70;99.90;;;;;;5033720;28;20184;-83
2023/12/13 02:18:06;;;;;;;14.53;4.13;;;10.70;99.90;;;;;;5033259;28;20666;-82
2023/12/13 02:20:32;;;;;;;11.60;3.13;;;10.60;99.90;;;;;;5034500;28;20172;-83
2023/12/13 02:22:58;;;;;;;19.20;3.07;;;10.60;99.90;;;;;;5033154;28;20900;-82
2023/12/13 02:25:37;;;;;;;13.30;3.13;;;10.60;99.90;;;;;;5032726;28;20182;-82
2023/12/13 02:28:05;;;;;;;15.30;3.17;;;10.60;99.90;;;;;;5033067;28;20178;-81
2023/12/13 02:30:31;;;;;;;14.53;3.37;;;10.60;99.90;;;;;;5034374;28;20312;-80
2023/12/13 02:32:56;;;;;;;9.60;3.13;;;10.60;99.90;;;;;;5032258;28;20606;-81
2023/12/13 02:35:23;;;;;;;11.37;3.23;;;10.60;99.90;;;;;;5032933;28;20540;-81
2023/12/13 02:37:49;;;;;;;10.57;2.70;;;10.60;99.90;;;;;;5033199;28;20208;-81
2023/12/13 02:40:22;;;;;;;10.60;3.00;;;10.60;99.90;;;;;;5032970;28;20266;-81
2023/12/13 02:42:48;;;;;;;9.90;3.03;;;10.50;99.90;;;;;;5034111;28;20227;-81
2023/12/13 02:45:14;;;;;;;12.37;3.13;;;10.60;99.90;;;;;;5032835;28;20643;-81
2023/12/13 02:47:43;;;;;;;10.27;2.87;;;10.60;99.90;;;;;;5032303;28;20657;-82
2023/12/13 02:50:13;;;;;;;16.27;3.67;;;10.70;99.90;;;;;;5032086;28;20304;-81
2023/12/13 02:52:40;;;;;;;13.57;3.50;;;10.70;99.90;;;;;;5031470;28;20514;-81
2023/12/13 02:55:07;;;;;;;11.50;3.00;;;10.60;99.90;;;;;;5032303;28;20268;-81
2023/12/13 02:57:32;;;;;;;18.53;3.03;;;10.70;99.90;;;;;;5032182;28;20174;-82
2023/12/13 02:59:58;;;;;;;11.00;2.80;;;10.70;99.90;;;;;;5032117;28;20192;-81
2023/12/13 03:02:25;;;;;;;11.60;2.97;;;10.60;99.90;;;;;;5032059;28;20170;-83
2023/12/13 03:04:51;;;;;;;8.10;2.43;;;10.60;99.90;;;;;;5031031;28;20181;-82
2023/12/13 03:07:17;;;;;;;12.73;2.90;;;10.50;99.90;;;;;;5032254;28;20201;-83
2023/12/13 03:09:43;;;;;;;8.20;2.60;;;10.50;99.90;;;;;;5031751;28;20245;-82
2023/12/13 03:12:08;;;;;;;12.10;2.80;;;10.50;99.90;;;;;;5032323;28;20265;-82
2023/12/13 03:14:34;;;;;;;12.13;3.40;;;10.50;99.90;;;;;;5032324;28;20617;-82
2023/12/13 03:17:00;;;;;;;13.87;2.97;;;10.60;99.90;;;;;;5031916;28;20181;-81
2023/12/13 03:19:25;;;;;;;12.27;3.13;;;10.60;99.90;;;;;;5032348;28;20622;-82
2023/12/13 03:21:51;;;;;;;13.03;2.60;;;10.50;99.90;;;;;;5031105;28;20671;-82
2023/12/13 03:24:17;;;;;;;11.03;3.00;;;10.60;99.90;;;;;;5032034;28;20699;-82
2023/12/13 03:26:43;;;;;;;10.90;2.80;;;10.50;99.90;;;;;;5031815;28;20184;-81
2023/12/13 03:29:08;;;;;;;10.50;2.93;;;10.50;99.90;;;;;;5032167;28;20739;-82
2023/12/13 03:31:34;;;;;;;9.63;2.90;;;10.50;99.90;;;;;;5030942;28;20716;-81
2023/12/13 03:34:00;;;;;;;12.33;2.70;;;10.50;99.90;;;;;;5032124;28;20465;-82
2023/12/13 03:36:27;;;;;;;12.50;2.73;;;10.50;99.90;;;;;;5031780;28;20240;-81
2023/12/13 03:38:53;;;;;;;15.00;3.63;;;10.40;99.90;;;;;;5032924;28;20255;-80
2023/12/13 03:41:19;;;;;;;10.47;3.20;;;10.30;99.90;;;;;;5031698;28;20180;-81
2023/12/13 03:43:45;;;;;;;13.23;3.27;;;10.40;99.90;;;;;;5031940;28;20179;-81
2023/12/13 03:46:11;;;;;;;13.87;3.50;;;10.30;99.90;;;;;;5031166;28;20324;-81
2023/12/13 03:48:36;;;;;;;11.70;3.10;;;10.40;99.90;;;;;;5030597;28;20646;-82
2023/12/13 03:51:04;;;;;;;16.17;3.47;;;10.40;99.90;;;;;;5031532;28;20181;-82
2023/12/13 03:53:30;;;;;;;12.90;3.30;;;10.50;99.90;;;;;;5031398;28;20186;-83
2023/12/13 03:55:56;;;;;;;16.47;2.80;;;10.50;99.90;;;;;;5030081;28;20195;-82
2023/12/13 03:58:22;;;;;;;13.23;3.50;;;10.50;99.90;;;;;;5031701;28;20239;-82
2023/12/13 04:00:47;;;;;;;16.00;3.77;;;10.50;99.90;;;;;;5030117;28;20209;-82
2023/12/13 04:03:13;;;;;;;14.37;3.37;;;10.60;99.90;;;;;;5030268;28;20633;-82
2023/12/13 04:05:39;;;;;;;13.87;3.40;;;10.50;99.90;;;;;;5031243;28;20636;-82
2023/12/13 04:08:06;;;;;;;16.80;3.40;;;10.50;99.90;;;;;;5031214;28;20206;-82
2023/12/13 04:10:32;;;;;;;12.97;2.93;;;10.60;99.90;;;;;;5030761;28;20218;-81
2023/12/13 04:12:58;;;;;;;11.13;3.03;;;10.40;99.90;;;;;;5030994;28;20171;-82
2023/12/13 04:15:24;;;;;;;12.40;3.07;;;10.40;99.90;;;;;;5030894;28;20183;-82
2023/12/13 04:17:49;;;;;;;12.70;3.53;;;10.40;99.90;;;;;;5031240;28;20178;-81
2023/12/13 04:20:16;;;;;;;11.53;3.00;;;10.30;99.90;;;;;;5031313;28;20183;-82
2023/12/13 04:22:41;;;;;;;10.67;2.97;;;10.30;99.90;;;;;;5029917;28;20191;-82
2023/12/13 04:25:07;;;;;;;13.63;3.33;;;10.40;99.90;;;;;;5031348;28;20225;-81
2023/12/13 04:27:33;;;;;;;13.23;3.30;;;10.40;99.90;;;;;;5031136;28;20185;-83
2023/12/13 04:29:59;;;;;;;10.43;3.03;;;10.40;99.90;;;;;;5032047;28;20264;-82
2023/12/13 04:32:24;;;;;;;15.50;3.40;;;10.30;99.90;;;;;;5030872;28;20176;-83
2023/12/13 04:34:50;;;;;;;11.33;2.90;;;10.30;99.90;;;;;;5030754;28;20642;-80
2023/12/13 04:37:16;;;;;;;8.37;2.70;;;10.30;99.90;;;;;;5030621;28;20484;-82
2023/12/13 04:39:41;;;;;;;12.77;3.60;;;10.40;99.90;;;;;;5031307;28;20180;-82
2023/12/13 04:42:08;;;;;;;13.57;3.43;;;10.40;99.90;;;;;;5031095;28;20511;-82
2023/12/13 04:44:33;;;;;;;13.90;3.67;;;10.30;99.90;;;;;;5029107;28;20178;-81
2023/12/13 04:46:59;;;;;;;16.50;3.43;;;10.20;99.90;;;;;;5030332;28;20181;-81
2023/12/13 04:49:25;;;;;;;13.07;3.20;;;10.30;99.90;;;;;;5030829;28;20218;-81
2023/12/13 04:51:51;;;;;;;12.17;2.87;;;10.30;99.90;;;;;;5029322;28;20538;-82
2023/12/13 04:54:18;;;;;;;9.97;3.30;;;10.30;99.90;;;;;;5030842;28;20670;-81
2023/12/13 04:56:44;;;;;;;12.77;3.50;;;10.30;99.90;;;;;;5030140;28;20174;-81
2023/12/13 04:59:10;;;;;;;11.33;3.10;;;10.20;99.90;;;;;;5030025;28;20372;-82
2023/12/13 05:01:36;;;;;;;9.23;2.80;;;10.20;99.90;;;;;;5032074;28;20206;-81
2023/12/13 05:04:01;;;;;;;14.17;3.53;;;10.20;99.90;;;;;;5030398;28;20178;-81
2023/12/13 05:06:27;;;;;;;7.63;3.10;;;10.20;99.90;;;;;;5030158;28;20522;-82
2023/12/13 05:08:53;;;;;;;12.57;3.00;;;10.20;99.90;;;;;;5030013;28;20233;-82
2023/12/13 05:11:19;;;;;;;15.10;3.27;;;10.10;99.90;;;;;;5030763;28;20183;-81
2023/12/13 05:13:44;;;;;;;9.47;3.00;;;10.10;99.90;;;;;;5034641;28;20328;-82
2023/12/13 05:16:11;;;;;;;10.93;3.57;;;10.10;99.90;;;;;;5034206;28;20170;-82
2023/12/13 05:18:36;;;;;;;11.43;3.53;;;10.00;99.90;;;;;;5034279;28;20284;-81
2023/12/13 05:21:02;;;;;;;10.03;2.90;;;10.00;99.90;;;;;;5034153;28;20260;-82
2023/12/13 05:23:28;;;;;;;13.30;2.87;;;10.00;99.90;;;;;;5034331;28;20541;-81
2023/12/13 05:25:54;;;;;;;13.47;3.10;;;10.00;99.90;;;;;;5033824;28;20307;-82
2023/12/13 05:28:20;;;;;;;11.63;2.70;;;10.00;99.90;;;;;;5033494;28;20176;-82
2023/12/13 05:30:46;;;;;;;14.53;3.13;;;10.00;99.90;;;;;;5034376;28;20179;-81
2023/12/13 05:33:12;;;;;;;14.13;3.50;;;10.10;99.90;;;;;;5034033;28;20201;-81
2023/12/13 05:35:38;;;;;;;8.17;2.93;;;10.00;99.90;;;;;;5034300;28;20178;-81
2023/12/13 05:38:03;;;;;;;16.57;3.37;;;10.10;99.90;;;;;;5034104;28;20175;-81
2023/12/13 05:40:31;;;;;;;13.80;3.67;;;10.10;99.90;;;;;;5033535;28;20187;-82
2023/12/13 05:42:57;;;;;;;12.70;3.80;;;10.00;99.90;;;;;;5033238;28;20181;-82
2023/12/13 05:45:23;;;;;;;13.70;3.73;;;10.10;99.90;;;;;;5033463;28;20175;-81
2023/12/13 05:47:49;;;;;;;12.27;4.17;;;10.10;99.90;;;;;;5032670;28;20184;-82
2023/12/13 05:50:18;;;;;;;17.57;3.97;;;10.10;99.90;;;;;;5032860;28;20310;-83
2023/12/13 05:52:44;;;;;;;11.03;2.87;;;10.10;99.90;;;;;;5033036;28;20245;-83
2023/12/13 05:55:10;;;;;;;12.50;2.80;;;10.10;99.90;;;;;;5034048;28;20633;-83
2023/12/13 05:57:35;;;;;;;12.37;3.27;;;10.10;99.90;;;;;;5032936;28;20176;-82
2023/12/13 06:00:01;;;;;;;11.00;3.50;;;10.10;99.90;;;;;;5032778;28;20177;-82
2023/12/13 06:02:27;;;;;;;10.33;2.80;;;10.10;99.90;;;;;;5032276;28;20269;-82
2023/12/13 06:04:53;;;;;;;10.10;3.70;;;10.10;99.90;;;;;;5032612;28;20320;-82
2023/12/13 06:07:18;;;;;;;13.20;3.70;;;10.10;99.90;;;;;;5032629;28;20575;-82
2023/12/13 06:09:44;;;;;;;13.67;3.50;;;10.10;99.90;;;;;;5031551;28;20282;-83
2023/12/13 06:12:11;;;;;;;10.77;3.77;;;10.10;99.90;;;;;;5031477;28;20179;-82
2023/12/13 06:14:37;;;;;;;14.23;3.43;;;10.10;99.90;;;;;;5033417;28;20185;-82
2023/12/13 06:17:03;;;;;;;12.23;3.30;;;10.00;99.90;;;;;;5032068;28;20177;-81
2023/12/13 06:19:29;;;;;;;9.93;3.10;;;10.00;99.90;;;;;;5032560;28;20715;-81
2023/12/13 06:21:56;;;;;;;20.10;4.10;;;10.10;99.90;;;;;;5031924;28;20264;-82
2023/12/13 06:24:22;;;;;;;13.30;3.93;;;10.00;99.90;;;;;;5033145;28;20261;-83
2023/12/13 06:26:48;;;;;;;10.73;3.03;;;9.90;99.90;;;;;;5031915;28;20212;-81
2023/12/13 06:29:14;;;;;;;10.07;3.20;;;10.00;99.90;;;;;;5032462;28;20250;-82
2023/12/13 06:31:39;;;;;;;10.80;3.23;;;10.00;99.90;;;;;;5031493;28;20185;-82
2023/12/13 06:34:05;;;;;;;14.70;3.67;;;10.00;99.90;;;;;;5032405;28;20181;-82
2023/12/13 06:36:31;;;;;;;9.40;3.57;;;10.00;99.90;;;;;;5033735;28;20249;-83
2023/12/13 06:38:56;;;;;;;14.67;3.20;;;10.00;99.90;;;;;;5030801;28;20241;-84
2023/12/13 06:41:22;;;;;;;13.83;3.40;;;10.00;99.90;;;;;;5032386;28;20249;-82
2023/12/13 06:43:48;;;;;;;14.93;3.33;;;10.00;99.90;;;;;;5033776;28;20170;-82
2023/12/13 06:46:13;;;;;;;14.07;3.70;;;10.10;99.90;;;;;;5031395;28;20704;-82
2023/12/13 06:48:39;;;;;;;10.47;2.97;;;10.10;99.90;;;;;;5031376;28;20690;-81
2023/12/13 06:51:07;;;;;;;11.23;3.10;;;10.00;99.90;;;;;;5031257;28;20178;-82
2023/12/13 06:53:35;;;;;;;15.17;3.23;;;10.00;99.90;;;;;;5030706;28;20618;-84
2023/12/13 06:56:01;;;;;;;10.63;2.90;;;10.10;99.90;;;;;;5032017;28;20189;-84
2023/12/13 06:58:27;;;;;;;11.30;3.70;;;10.10;99.90;;;;;;5031905;28;20266;-84
2023/12/13 07:00:52;;;;;;;9.37;3.10;;;10.00;99.90;;;;;;5032369;28;20228;-83
2023/12/13 07:03:18;;;;;;;14.77;3.80;;;10.10;99.90;;;;;;5030912;28;20182;-87
2023/12/13 07:05:45;;;;;;;14.23;3.17;;;10.00;99.90;;;;;;5031823;28;20184;-83
2023/12/13 07:08:10;;;;;;;10.63;3.67;;;10.10;99.90;;;;;;5031148;28;20250;-81
2023/12/13 07:10:36;;;;;;;10.60;2.97;;;10.10;99.90;;;;;;5032184;28;20306;-81
2023/12/13 07:13:02;;;;;;;11.83;3.70;;;10.00;99.90;;;;;;5030423;28;20174;-82
2023/12/13 07:15:27;;;;;;;11.47;3.40;;;10.00;99.90;;;;;;5032054;28;20254;-82
2023/12/13 07:17:53;;;;;;;15.53;4.07;;;9.90;99.90;;;;;;5029594;28;20177;-84
2023/12/13 07:20:21;;;;;;;11.10;3.13;;;10.10;99.90;;;;;;5032890;28;20181;-81
2023/12/13 07:22:49;;;;;;;16.43;3.57;;;10.00;99.90;;;;;;5032376;28;20175;-83
2023/12/13 07:25:15;;;;;;;16.53;3.43;;;10.00;99.90;;;;;;5031381;28;20544;-81
2023/12/13 07:27:40;;;;;;;10.80;3.50;;;9.90;99.90;;;;;;5017552;28;20540;-81
2023/12/13 07:30:07;;;;;;;11.73;3.17;;;9.90;99.90;;;;;;5012826;28;20863;-81
2023/12/13 07:32:33;;;;;;;14.50;3.40;;;9.90;99.90;;;;;;5018955;28;20217;-83
2023/12/13 07:34:59;;;;;;;8.87;3.50;;;10.00;99.90;;;;;;5016438;28;20194;-83
2023/12/13 07:37:25;;;;;;;11.27;3.23;;;10.00;99.90;;;;;;5014077;28;20179;-84
2023/12/13 07:39:50;;;;;;;10.17;3.53;;;10.00;99.90;;;;;;5012714;28;20270;-83
2023/12/13 07:42:16;;;;;;;13.10;3.43;;;10.00;99.90;;;;;;5010337;28;20279;-85
2023/12/13 07:44:43;;;;;;;12.97;3.37;;;10.10;99.90;;;;;;5028922;28;20649;-83
2023/12/13 07:47:09;;;;;;;13.47;2.80;;;10.20;99.90;;;;;;5027153;28;20191;-83
2023/12/13 07:49:36;;;;;;;9.80;3.10;;;10.20;99.90;;;;;;5027525;28;20674;-83
2023/12/13 07:52:04;;;;;;;13.83;3.37;;;10.10;99.90;;;;;;5029114;28;20648;-82
2023/12/13 07:54:29;;;;;;;12.67;3.37;;;10.10;99.90;;;;;;5031110;28;20213;-83
2023/12/13 07:56:55;;;;;;;11.53;3.40;;;10.10;99.90;;;;;;5032283;28;20208;-82
2023/12/13 07:59:21;;;;;;;8.37;3.10;;;10.10;99.90;;;;;;5025252;28;20182;-83
2023/12/13 08:01:46;;;;;;;11.80;3.10;;;10.10;99.90;;;;;;5029915;28;20738;-83
2023/12/13 08:04:12;;;;;;;12.67;3.80;;;10.00;99.90;;;;;;5031188;28;20179;-82
2023/12/13 08:06:38;;;;;;;10.60;2.90;;;10.10;99.90;;;;;;5020111;28;20632;-82
2023/12/13 08:09:04;;;;;;;13.13;3.43;;;10.00;99.90;;;;;;5031342;28;20213;-82
2023/12/13 08:11:30;;;;;;;13.43;3.10;;;10.00;99.90;;;;;;5024861;28;20501;-84
2023/12/13 08:13:55;;;;;;;14.27;3.27;;;10.00;99.90;;;;;;5011499;28;20180;-85
2023/12/13 08:16:22;;;;;;;11.87;3.17;;;10.10;99.90;;;;;;5019647;28;20184;-83
2023/12/13 08:18:48;;;;;;;10.70;3.33;;;10.10;99.90;;;;;;5015230;28;20178;-83
2023/12/13 08:21:14;;;;;;;8.93;3.13;;;10.20;99.90;;;;;;5012648;28;20227;-82
2023/12/13 08:23:39;;;;;;;12.03;3.50;;;10.20;99.90;;;;;;5030758;28;20178;-85
2023/12/13 08:26:05;;;;;;;13.63;3.30;;;10.10;99.90;;;;;;5031305;28;20564;-83
2023/12/13 08:28:31;;;;;;;12.73;3.13;;;10.10;99.90;;;;;;5030293;28;20170;-83
2023/12/13 08:30:56;;;;;;;11.53;3.60;;;10.00;99.90;;;;;;5031391;28;20245;-81
2023/12/13 08:33:22;;;;;;;11.30;3.30;;;10.00;99.90;;;;;;5030374;28;20528;-89
2023/12/13 08:35:48;;;;;;;11.77;3.20;;;10.00;99.90;;;;;;5012885;28;20655;-85
2023/12/13 08:38:13;;;;;;;11.37;3.47;;;10.00;99.90;;;;;;5011940;28;20633;-85
2023/12/13 08:40:39;;;;;;;14.87;3.30;;;10.00;99.90;;;;;;5017602;28;20181;-86
2023/12/13 08:43:05;;;;;;;16.00;3.20;;;10.10;99.90;;;;;;5033914;28;20179;-83
2023/12/13 08:45:31;;;;;;;12.40;3.37;;;10.20;99.90;;;;;;5031825;28;20189;-83
2023/12/13 08:47:56;;;;;;;14.43;3.20;;;10.20;99.90;;;;;;5034557;28;20179;-84
2023/12/13 08:50:22;;;;;;;12.33;3.33;;;10.10;99.90;;;;;;5034819;28;20354;-85
2023/12/13 08:52:48;;;;;;;11.20;4.23;;;10.00;99.90;;;;;;5015181;28;20229;-85
2023/12/13 08:55:14;;;;;;;9.63;3.27;;;10.00;99.90;;;;;;5025401;28;20647;-84
2023/12/13 08:57:40;;;;;;;15.93;3.20;;;9.90;99.90;;;;;;5034361;28;20744;-83
2023/12/13 09:00:07;;;;;;;12.27;3.47;;;10.00;99.90;;;;;;5033854;28;20642;-83
2023/12/13 09:02:32;;;;;;;11.00;3.43;;;10.00;99.90;;;;;;5018195;28;20202;-84
2023/12/13 09:04:58;;;;;;;12.33;3.50;;;10.10;99.90;;;;;;5016009;28;20266;-83
2023/12/13 09:07:24;;;;;;;14.73;4.33;;;10.10;99.90;;;;;;5023811;28;20677;-81
2023/12/13 09:09:49;;;;;;;13.27;4.00;;;10.10;99.90;;;;;;5014019;28;20219;-84
2023/12/13 09:12:15;;;;;;;10.80;3.73;;;10.10;99.90;;;;;;5015879;28;20218;-85
2023/12/13 09:14:41;;;;;;;11.87;3.57;;;10.00;99.90;;;;;;5019624;28;20190;-85
2023/12/13 09:17:07;;;;;;;11.40;3.30;;;10.00;99.90;;;;;;5023207;28;20175;-86
2023/12/13 09:19:33;;;;;;;11.97;3.70;;;10.00;99.90;;;;;;5028506;28;20182;-87
2023/12/13 09:21:59;;;;;;;12.87;4.07;;;10.00;99.90;;;;;;5035007;28;20195;-85
2023/12/13 09:24:26;;;;;;;11.10;3.77;;;10.10;99.90;;;;;;5034578;28;20216;-85
2023/12/13 09:26:51;;;;;;;13.20;4.47;;;10.00;99.90;;;;;;5039040;28;20226;-83
2023/12/13 09:29:17;;;;;;;11.73;4.30;;;10.10;99.90;;;;;;5016621;28;20213;-84
2023/12/13 09:31:43;;;;;;;11.47;4.10;;;10.30;99.90;;;;;;5016435;28;20175;-84
2023/12/13 09:34:08;;;;;;;10.63;3.73;;;10.30;99.90;;;;;;5017603;28;20549;-83
2023/12/13 09:36:34;;;;;;;9.23;3.67;;;10.30;99.90;;;;;;5022611;28;20485;-84
2023/12/13 09:38:59;;;;;;;13.20;3.53;;;10.20;99.90;;;;;;5043255;28;20175;-85
2023/12/13 09:41:32;;;;;;;9.13;3.50;;;10.20;99.90;;;;;;5051656;28;20177;-86
2023/12/13 09:43:58;;;;;;;11.13;3.70;;;10.20;99.90;;;;;;5034577;28;20170;-83
2023/12/13 09:46:25;;;;;;;11.23;3.63;;;10.20;99.90;;;;;;5033206;28;20699;-84
2023/12/13 09:48:51;;;;;;;10.97;3.97;;;10.30;99.90;;;;;;5032918;28;20216;-80
2023/12/13 09:51:19;;;;;;;11.57;4.17;;;10.50;99.90;;;;;;5033266;28;20261;-84
2023/12/13 09:53:49;;;;;;;12.80;3.77;;;10.60;99.90;;;;;;5044062;28;20270;-84
2023/12/13 09:56:15;;;;;;;12.10;3.73;;;10.60;99.90;;;;;;5030864;28;20178;-84
2023/12/13 09:58:40;;;;;;;13.67;4.30;;;10.50;99.90;;;;;;5026150;28;20639;-85
2023/12/13 10:01:12;;;;;;;15.37;4.17;;;10.60;99.90;;;;;;5029552;28;20186;-87
2023/12/13 10:03:41;;;;;;;11.73;3.40;;;10.50;99.90;;;;;;5033951;28;20257;-85
2023/12/13 10:06:08;;;;;;;10.67;3.73;;;10.40;99.90;;;;;;5033324;28;20204;-85
2023/12/13 10:08:35;;;;;;;11.17;3.83;;;10.30;99.90;;;;;;5038359;28;20192;-86
2023/12/13 10:11:04;;;;;;;11.27;4.10;;;10.30;99.90;;;;;;5034001;28;20197;-83
2023/12/13 10:13:30;;;;;;;14.37;3.93;;;10.40;99.90;;;;;;5041846;28;20204;-84
2023/12/13 10:15:56;;;;;;;13.13;4.13;;;10.40;99.90;;;;;;5052330;28;20522;-86
2023/12/13 10:18:22;;;;;;;10.00;3.60;;;10.40;99.90;;;;;;5052956;28;20226;-84
2023/12/13 10:20:48;;;;;;;11.70;3.57;;;10.40;99.90;;;;;;5052766;28;20171;-84
2023/12/13 10:23:13;;;;;;;11.70;3.80;;;10.40;99.90;;;;;;5052262;28;20277;-85
2023/12/13 10:25:40;;;;;;;10.57;3.53;;;10.50;99.90;;;;;;5053367;28;20173;-86
2023/12/13 10:28:05;;;;;;;8.40;3.80;;;10.50;99.90;;;;;;5053651;28;20173;-86
2023/12/13 10:30:34;;;;;;;15.23;4.63;;;10.50;99.90;;;;;;5052053;28;20277;-85
2023/12/13 10:32:59;;;;;;;8.63;3.20;;;10.50;99.90;;;;;;5052655;28;20165;-86
2023/12/13 10:35:25;;;;;;;8.93;3.90;;;10.50;99.90;;;;;;5052992;28;20200;-85
2023/12/13 10:37:59;;;;;;;8.83;3.90;;;10.50;99.90;;;;;;5053286;28;20176;-85
2023/12/13 10:40:24;;;;;;;13.63;4.30;;;10.50;99.90;;;;;;5052875;28;20565;-85
2023/12/13 10:42:54;;;;;;;10.17;4.03;;;10.50;99.90;;;;;;5052258;28;20181;-86
2023/12/13 10:45:22;;;;;;;8.37;3.63;;;10.50;99.90;;;;;;5053056;28;20205;-85
2023/12/13 10:47:51;;;;;;;9.63;3.90;;;10.50;99.90;;;;;;5052132;28;20174;-85
2023/12/13 10:50:18;;;;;;;12.63;4.20;;;10.40;99.90;;;;;;5052560;28;20213;-85
2023/12/13 10:52:45;;;;;;;11.67;3.60;;;10.50;99.90;;;;;;5052395;28;20193;-85
2023/12/13 10:55:14;;;;;;;9.60;4.20;;;10.50;99.90;;;;;;5052254;28;20543;-86
2023/12/13 10:57:40;;;;;;;10.47;4.13;;;10.50;99.90;;;;;;5051593;28;20260;-85
2023/12/13 11:00:07;;;;;;;14.67;4.87;;;10.50;99.90;;;;;;5051466;28;20296;-86
2023/12/13 11:02:46;;;;;;;9.87;4.23;;;10.50;99.90;;;;;;5052704;28;20177;-86
2023/12/13 11:05:13;;;;;;;11.00;4.13;;;10.40;99.90;;;;;;5052440;28;20260;-84
2023/12/13 11:07:46;;;;;;;9.33;3.90;;;10.50;99.90;;;;;;5051211;28;20642;-86
2023/12/13 11:10:13;;;;;;;9.77;5.13;;;10.50;99.90;;;;;;5051653;28;20251;-84
2023/12/13 11:12:52;;;;;;;9.40;4.37;;;10.50;99.90;;;;;;5015026;28;20231;-83
2023/12/13 11:15:19;;;;;;;12.90;4.93;;;10.50;99.90;;;;;;5027935;28;20689;-86
2023/12/13 11:17:48;;;;;;;8.97;4.60;;;10.50;99.90;;;;;;5028501;28;20185;-86
2023/12/13 11:20:15;;;;;;;10.80;4.50;;;10.50;99.90;;;;;;5028678;28;20192;-84
2023/12/13 11:22:44;;;;;;;10.93;4.73;;;10.50;99.90;;;;;;5030347;28;20233;-86
2023/12/13 11:25:10;;;;;;;9.87;4.40;;;10.40;99.90;;;;;;5029608;28;20181;-86
2023/12/13 11:27:36;;;;;;;9.27;4.47;;;10.40;99.90;;;;;;5031251;28;20177;-84
2023/12/13 11:30:15;;;;;;;7.87;4.17;;;10.30;99.90;;;;;;5028994;28;20230;-84
2023/12/13 11:32:48;;;;;;;10.07;4.83;;;10.40;99.90;;;;;;5026336;28;20231;-84
2023/12/13 11:35:18;;;;;;;11.67;5.10;;;10.50;99.90;;;;;;5028166;28;20280;-84
2023/12/13 11:37:52;;;;;;;10.67;4.47;;;10.50;99.90;;;;;;5026536;28;20196;-84
2023/12/13 11:40:18;;;;;;;8.60;4.80;;;10.50;99.90;;;;;;5026798;28;20185;-83
2023/12/13 11:42:45;;;;;;;10.13;5.70;;;10.40;99.90;;;;;;5026422;28;20189;-84
2023/12/13 11:45:11;;;;;;;12.40;5.20;;;10.50;99.90;;;;;;5027609;28;20178;-83
2023/12/13 11:47:38;;;;;;;8.00;5.10;;;10.60;99.90;;;;;;5027578;28;20721;-86
2023/12/13 11:50:04;;;;;;;10.53;5.30;;;10.70;99.90;;;;;;5028701;28;20329;-84
2023/12/13 11:52:30;;;;;;;8.63;5.10;;;10.70;99.90;;;;;;5028098;28;20641;-85
2023/12/13 11:54:57;;;;;;;11.53;5.40;;;10.70;99.90;;;;;;5025837;28;20173;-85
2023/12/13 11:57:23;;;;;;;11.37;5.70;;;10.70;99.90;;;;;;5025519;28;20178;-85
2023/12/13 11:59:49;;;;;;;11.10;5.20;;;10.80;99.90;;;;;;5026375;28;20631;-84
2023/12/13 12:02:16;;;;;;;11.47;5.03;;;10.80;99.90;;;;;;5026223;28;20165;-84
2023/12/13 12:04:43;;;;;;;13.07;5.37;;;11.00;99.90;;;;;;5027799;28;20181;-83
2023/12/13 12:07:18;;;;;;;12.27;5.33;;;11.00;99.90;;;;;;5026698;28;20185;-84
2023/12/13 12:09:51;;;;;;;14.40;6.27;;;11.10;99.90;;;;;;5026480;28;20762;-83
2023/12/13 12:12:18;;;;;;;13.83;6.03;;;11.00;99.90;;;;;;5026465;28;20186;-84
2023/12/13 12:14:49;;;;;;;10.53;5.37;;;11.10;99.90;;;;;;5027286;28;20188;-85
2023/12/13 12:17:19;;;;;;;11.27;6.03;;;11.10;99.90;;;;;;5027167;28;20266;-84
2023/12/13 12:19:45;;;;;;;10.80;5.50;;;11.10;99.90;;;;;;5028004;28;20189;-82
2023/12/13 12:22:12;;;;;;;9.77;5.47;;;11.10;99.90;;;;;;5027241;28;20181;-84
2023/12/13 12:24:38;;;;;;;10.53;6.20;;;11.20;99.90;;;;;;5028188;28;20556;-85
2023/12/13 12:27:10;;;;;;;10.47;5.50;;;11.10;99.90;;;;;;5027570;28;20210;-86
2023/12/13 12:29:36;;;;;;;11.27;5.97;;;11.20;99.90;;;;;;5027723;28;20217;-83
2023/12/13 12:32:11;;;;;;;10.20;6.77;;;11.30;99.90;;;;;;5027654;28;20181;-84
2023/12/13 12:34:41;;;;;;;10.87;6.47;;;11.40;99.90;;;;;;5025289;28;20196;-85